Time;durP1;ratioP1;P1;durP2;ratioP2;P2;SDS_P1;SDS_P2;PMS_P1;PMS_P2;Temp;Humidity;BMP_temperature;BMP_pressure;BME280_temperature;BME280_humidity;BME280_pressure;Samples;Min_cycle;Max_cycle;Signal;HPM_P1;HPM_P2
2023/05/25 00:00:08;;;;;;;7.57;3.17;;;;;;;;;;5046469;28;20204;-75
2023/05/25 00:02:36;;;;;;;4.93;3.43;;;;;;;;;;5050488;28;20269;-75
2023/05/25 00:05:04;;;;;;;6.20;3.23;;;;;;;;;;5048650;28;20211;-74
2023/05/25 00:07:31;;;;;;;7.53;3.00;;;;;;;;;;5052187;28;20196;-75
2023/05/25 00:09:59;;;;;;;4.70;3.10;;;;;;;;;;5045798;28;20207;-74
2023/05/25 00:12:26;;;;;;;6.93;3.30;;;;;;;;;;5048792;28;20200;-74
2023/05/25 00:14:53;;;;;;;6.03;3.00;;;;;;;;;;5047512;28;20195;-74
2023/05/25 00:17:20;;;;;;;7.43;3.50;;;;;;;;;;5046463;28;20220;-74
2023/05/25 00:19:47;;;;;;;5.07;2.90;;;;;;;;;;5049043;28;20275;-74
2023/05/25 00:22:16;;;;;;;6.20;3.13;;;;;;;;;;5044049;28;20227;-75
2023/05/25 00:24:43;;;;;;;5.83;3.20;;;;;;;;;;5046800;28;20249;-75
2023/05/25 00:27:10;;;;;;;7.17;3.07;;;;;;;;;;5044994;28;20200;-75
2023/05/25 00:29:37;;;;;;;7.53;3.20;;;;;;;;;;5049165;28;20203;-74
2023/05/25 00:32:05;;;;;;;6.60;3.20;;;;;;;;;;5049288;28;20206;-74
2023/05/25 00:34:32;;;;;;;6.50;3.40;;;;;;;;;;5048439;28;20199;-74
2023/05/25 00:36:59;;;;;;;5.27;2.80;;;;;;;;;;5048193;28;20224;-75
2023/05/25 00:39:27;;;;;;;6.37;3.10;;;;;;;;;;5046498;28;20253;-74
2023/05/25 00:41:55;;;;;;;8.10;2.87;;;;;;;;;;5049609;28;20199;-74
2023/05/25 00:44:22;;;;;;;8.13;3.10;;;;;;;;;;5045171;28;20195;-75
2023/05/25 00:46:50;;;;;;;8.90;3.37;;;;;;;;;;5049176;28;20207;-75
2023/05/25 00:49:18;;;;;;;5.07;3.17;;;;;;;;;;5048867;28;20250;-74
2023/05/25 00:51:46;;;;;;;7.40;3.27;;;;;;;;;;5049188;28;20203;-75
2023/05/25 00:54:14;;;;;;;6.33;3.30;;;;;;;;;;5047786;28;20199;-75
2023/05/25 00:56:45;;;;;;;6.30;3.27;;;;;;;;;;5049547;28;20207;-74
2023/05/25 00:59:15;;;;;;;6.90;3.40;;;;;;;;;;5045624;28;20207;-74
2023/05/25 01:01:43;;;;;;;6.80;3.50;;;;;;;;;;5049636;28;20204;-74
2023/05/25 01:04:12;;;;;;;9.10;3.50;;;;;;;;;;5046677;28;20195;-74
2023/05/25 01:06:40;;;;;;;6.20;3.50;;;;;;;;;;5048189;28;20203;-74
2023/05/25 01:09:09;;;;;;;5.57;3.37;;;;;;;;;;5045461;28;20207;-74
2023/05/25 01:11:37;;;;;;;7.37;3.40;;;;;;;;;;5043097;28;20203;-74
2023/05/25 01:14:06;;;;;;;9.87;3.90;;;;;;;;;;5040926;28;20222;-74
2023/05/25 01:16:34;;;;;;;5.53;3.30;;;;;;;;;;5042499;28;20223;-75
2023/05/25 01:19:01;;;;;;;7.43;3.47;;;;;;;;;;5043576;28;20204;-74
2023/05/25 01:21:36;;;;;;;6.23;3.20;;;;;;;;;;5048347;28;20250;-74
2023/05/25 01:24:07;;;;;;;7.50;3.40;;;;;;;;;;5049638;28;20203;-74
2023/05/25 01:26:35;;;;;;;6.17;3.10;;;;;;;;;;5047965;28;20262;-75
2023/05/25 01:29:02;;;;;;;5.13;2.87;;;;;;;;;;5047733;28;20192;-75
2023/05/25 01:31:30;;;;;;;6.60;3.30;;;;;;;;;;5042229;28;20534;-75
2023/05/25 01:33:57;;;;;;;7.90;3.27;;;;;;;;;;5047157;28;20214;-74
2023/05/25 01:36:24;;;;;;;7.00;3.37;;;;;;;;;;5046566;28;20219;-75
2023/05/25 01:38:53;;;;;;;6.37;3.50;;;;;;;;;;5044559;28;20306;-74
2023/05/25 01:41:20;;;;;;;4.97;3.13;;;;;;;;;;5045730;28;20207;-75
2023/05/25 01:43:47;;;;;;;8.53;3.63;;;;;;;;;;5046178;28;20261;-75
2023/05/25 01:46:18;;;;;;;5.80;3.27;;;;;;;;;;5050056;28;20195;-75
2023/05/25 01:48:52;;;;;;;7.57;3.40;;;;;;;;;;5045819;28;20207;-75
2023/05/25 01:51:22;;;;;;;7.87;3.40;;;;;;;;;;5046646;28;20207;-74
2023/05/25 01:53:51;;;;;;;5.60;3.07;;;;;;;;;;5047373;28;20222;-74
2023/05/25 01:56:20;;;;;;;7.87;3.30;;;;;;;;;;5046274;28;20220;-74
2023/05/25 01:58:48;;;;;;;8.40;3.50;;;;;;;;;;5048104;28;20217;-75
2023/05/25 02:01:17;;;;;;;7.97;3.40;;;;;;;;;;5049956;28;20290;-74
2023/05/25 02:03:44;;;;;;;6.30;3.17;;;;;;;;;;5049733;28;20221;-75
2023/05/25 02:06:11;;;;;;;6.73;3.40;;;;;;;;;;5052760;28;20222;-74
2023/05/25 02:08:39;;;;;;;8.53;3.73;;;;;;;;;;5052304;28;20203;-75
2023/05/25 02:11:06;;;;;;;6.87;3.50;;;;;;;;;;5052652;28;20199;-74
2023/05/25 02:13:34;;;;;;;6.50;3.30;;;;;;;;;;5049958;28;20214;-75
2023/05/25 02:16:02;;;;;;;5.57;3.30;;;;;;;;;;5052267;28;20203;-74
2023/05/25 02:18:29;;;;;;;8.90;3.77;;;;;;;;;;5050642;28;20286;-75
2023/05/25 02:20:56;;;;;;;8.97;3.97;;;;;;;;;;5049132;28;20231;-74
2023/05/25 02:23:23;;;;;;;7.50;3.40;;;;;;;;;;5050332;28;20200;-74
2023/05/25 02:25:51;;;;;;;7.10;3.30;;;;;;;;;;5047718;28;20207;-74
2023/05/25 02:28:18;;;;;;;5.77;3.60;;;;;;;;;;5044728;28;20253;-74
2023/05/25 02:30:47;;;;;;;6.10;3.57;;;;;;;;;;5050907;28;20257;-74
2023/05/25 02:33:14;;;;;;;6.43;3.50;;;;;;;;;;5051280;28;20210;-74
2023/05/25 02:35:41;;;;;;;9.50;3.50;;;;;;;;;;5049697;28;20291;-75
2023/05/25 02:38:08;;;;;;;7.40;3.73;;;;;;;;;;5049214;28;20316;-75
2023/05/25 02:40:35;;;;;;;6.83;3.00;;;;;;;;;;5053330;28;20206;-75
2023/05/25 02:43:02;;;;;;;5.87;3.40;;;;;;;;;;5051215;28;20212;-75
2023/05/25 02:45:30;;;;;;;8.20;3.20;;;;;;;;;;5051067;28;20207;-75
2023/05/25 02:47:58;;;;;;;5.67;3.40;;;;;;;;;;5048436;28;20199;-75
2023/05/25 02:50:25;;;;;;;7.77;3.40;;;;;;;;;;5052776;28;20200;-75
2023/05/25 02:52:52;;;;;;;7.20;3.43;;;;;;;;;;5051736;28;20306;-75
2023/05/25 02:55:19;;;;;;;8.17;3.40;;;;;;;;;;5050563;28;20206;-75
2023/05/25 02:57:46;;;;;;;7.40;3.30;;;;;;;;;;5051621;28;20238;-75
2023/05/25 03:00:14;;;;;;;7.13;3.60;;;;;;;;;;5051224;28;20206;-75
2023/05/25 03:02:41;;;;;;;8.10;3.80;;;;;;;;;;5052527;28;20195;-75
2023/05/25 03:05:10;;;;;;;7.00;3.50;;;;;;;;;;5051353;28;20204;-65
2023/05/25 03:07:37;;;;;;;8.37;3.57;;;;;;;;;;5049366;28;20202;-65
2023/05/25 03:10:04;;;;;;;7.10;3.53;;;;;;;;;;5053292;28;20208;-65
2023/05/25 03:12:31;;;;;;;4.53;3.20;;;;;;;;;;5052901;28;20195;-65
2023/05/25 03:14:59;;;;;;;6.13;3.47;;;;;;;;;;5053469;28;20203;-65
2023/05/25 03:17:26;;;;;;;6.23;3.63;;;;;;;;;;5053235;28;20230;-65
2023/05/25 03:19:53;;;;;;;6.80;3.30;;;;;;;;;;5047235;28;20234;-65
2023/05/25 03:22:21;;;;;;;7.60;3.47;;;;;;;;;;5053394;28;20239;-65
2023/05/25 03:24:49;;;;;;;6.23;3.53;;;;;;;;;;5044439;28;20204;-65
2023/05/25 03:27:16;;;;;;;7.63;3.70;;;;;;;;;;5053296;28;20200;-65
2023/05/25 03:29:43;;;;;;;5.67;3.47;;;;;;;;;;5052918;28;20253;-65
2023/05/25 03:32:10;;;;;;;8.13;3.70;;;;;;;;;;5048577;28;20210;-65
2023/05/25 03:34:39;;;;;;;5.87;3.17;;;;;;;;;;5049842;28;20200;-65
2023/05/25 03:37:06;;;;;;;6.83;3.40;;;;;;;;;;5052592;28;20231;-65
2023/05/25 03:39:34;;;;;;;7.67;3.43;;;;;;;;;;5049411;28;20206;-65
2023/05/25 03:42:02;;;;;;;6.70;3.50;;;;;;;;;;5047776;28;20211;-64
2023/05/25 03:44:29;;;;;;;7.00;3.37;;;;;;;;;;5046962;28;20227;-65
2023/05/25 03:46:56;;;;;;;7.27;3.53;;;;;;;;;;5045501;28;20211;-65
2023/05/25 03:49:23;;;;;;;6.97;3.50;;;;;;;;;;5050728;28;20202;-65
2023/05/25 03:51:50;;;;;;;5.67;3.43;;;;;;;;;;5046134;28;20210;-65
2023/05/25 03:54:17;;;;;;;8.43;3.90;;;;;;;;;;5049750;28;20196;-65
2023/05/25 03:56:46;;;;;;;6.67;3.33;;;;;;;;;;5051691;28;20206;-65
2023/05/25 03:59:13;;;;;;;6.60;3.90;;;;;;;;;;5051846;28;20208;-65
2023/05/25 04:01:40;;;;;;;7.13;3.53;;;;;;;;;;5049758;28;20204;-65
2023/05/25 04:04:08;;;;;;;4.60;3.30;;;;;;;;;;5047080;28;20207;-65
2023/05/25 04:06:36;;;;;;;5.63;3.20;;;;;;;;;;5047828;28;20200;-65
2023/05/25 04:09:03;;;;;;;6.13;3.20;;;;;;;;;;5049474;28;20195;-65
2023/05/25 04:11:30;;;;;;;7.17;3.43;;;;;;;;;;5048432;28;20199;-65
2023/05/25 04:13:59;;;;;;;6.67;3.60;;;;;;;;;;5051641;28;20225;-65
2023/05/25 04:16:26;;;;;;;6.90;3.80;;;;;;;;;;5049792;28;20195;-65
2023/05/25 04:18:54;;;;;;;7.27;3.50;;;;;;;;;;5052466;28;20231;-65
2023/05/25 04:21:21;;;;;;;6.37;4.03;;;;;;;;;;5047818;28;20234;-65
2023/05/25 04:23:48;;;;;;;5.60;3.40;;;;;;;;;;5045757;28;20207;-65
2023/05/25 04:26:15;;;;;;;7.13;3.53;;;;;;;;;;5050344;28;20196;-65
2023/05/25 04:28:43;;;;;;;5.63;3.63;;;;;;;;;;5052210;28;20203;-65
2023/05/25 04:31:14;;;;;;;3.80;3.30;;;;;;;;;;5046462;28;20210;-65
2023/05/25 04:33:41;;;;;;;8.17;3.87;;;;;;;;;;5043724;28;20404;-65
2023/05/25 04:36:09;;;;;;;9.67;3.27;;;;;;;;;;5046442;28;20200;-65
2023/05/25 04:38:36;;;;;;;8.00;4.07;;;;;;;;;;5044301;28;20226;-65
2023/05/25 04:41:05;;;;;;;6.40;3.10;;;;;;;;;;5042919;28;20207;-65
2023/05/25 04:43:32;;;;;;;7.73;4.07;;;;;;;;;;5046583;28;20212;-65
2023/05/25 04:46:00;;;;;;;5.70;3.40;;;;;;;;;;5046425;28;20203;-65
2023/05/25 04:48:31;;;;;;;5.67;3.47;;;;;;;;;;5048840;28;20207;-65
2023/05/25 04:51:03;;;;;;;7.90;4.07;;;;;;;;;;5049871;28;20246;-65
2023/05/25 04:53:31;;;;;;;8.23;3.57;;;;;;;;;;5043680;28;20239;-65
2023/05/25 04:55:58;;;;;;;6.07;3.40;;;;;;;;;;5044397;28;20198;-65
2023/05/25 04:58:25;;;;;;;6.40;3.60;;;;;;;;;;5044874;28;20218;-64
2023/05/25 05:00:52;;;;;;;5.33;3.30;;;;;;;;;;5047382;28;20211;-64
2023/05/25 05:03:20;;;;;;;7.90;3.70;;;;;;;;;;5044651;28;20205;-65
2023/05/25 05:05:51;;;;;;;6.60;3.60;;;;;;;;;;5047231;28;20211;-65
2023/05/25 05:08:18;;;;;;;7.23;3.50;;;;;;;;;;5048265;28;20255;-65
2023/05/25 05:10:45;;;;;;;7.17;3.67;;;;;;;;;;5045416;28;20199;-64
2023/05/25 05:13:12;;;;;;;7.90;4.27;;;;;;;;;;5044982;28;20211;-64
2023/05/25 05:15:40;;;;;;;7.13;4.20;;;;;;;;;;5041362;28;20215;-63
2023/05/25 05:18:07;;;;;;;6.00;3.70;;;;;;;;;;5048177;28;20283;-65
2023/05/25 05:20:34;;;;;;;7.90;3.80;;;;;;;;;;5045022;28;20203;-64
2023/05/25 05:23:03;;;;;;;7.57;4.13;;;;;;;;;;5044362;28;20248;-64
2023/05/25 05:25:30;;;;;;;7.03;4.00;;;;;;;;;;5050704;28;20203;-64
2023/05/25 05:27:57;;;;;;;6.67;3.47;;;;;;;;;;5046005;28;20204;-64
2023/05/25 05:30:24;;;;;;;6.57;4.13;;;;;;;;;;5045091;28;20360;-63
2023/05/25 05:32:51;;;;;;;6.57;3.60;;;;;;;;;;5047208;28;20211;-63
2023/05/25 05:35:18;;;;;;;6.40;3.73;;;;;;;;;;5041035;28;20218;-63
2023/05/25 05:37:46;;;;;;;5.87;3.67;;;;;;;;;;5044373;28;20269;-63
2023/05/25 05:40:15;;;;;;;10.67;4.30;;;;;;;;;;5046965;28;20214;-63
2023/05/25 05:42:42;;;;;;;6.40;4.20;;;;;;;;;;5043794;28;20211;-63
2023/05/25 05:45:09;;;;;;;8.33;4.07;;;;;;;;;;5047735;28;20208;-64
2023/05/25 05:47:36;;;;;;;6.17;3.90;;;;;;;;;;5046771;28;20204;-63
2023/05/25 05:50:04;;;;;;;6.23;3.40;;;;;;;;;;5038569;28;20223;-63
2023/05/25 05:52:31;;;;;;;7.77;3.97;;;;;;;;;;5047142;28;20280;-62
2023/05/25 05:54:58;;;;;;;7.60;3.97;;;;;;;;;;5049793;28;20214;-62
2023/05/25 05:57:27;;;;;;;6.83;3.87;;;;;;;;;;5041933;28;20204;-62
2023/05/25 05:59:54;;;;;;;7.37;4.07;;;;;;;;;;5048331;28;20208;-62
2023/05/25 06:02:21;;;;;;;8.30;4.30;;;;;;;;;;5048623;28;20202;-62
2023/05/25 06:04:48;;;;;;;7.70;3.93;;;;;;;;;;5045059;28;20218;-62
2023/05/25 06:07:15;;;;;;;6.43;4.33;;;;;;;;;;5048910;28;20206;-62
2023/05/25 06:09:42;;;;;;;7.13;3.80;;;;;;;;;;5045104;28;20196;-62
2023/05/25 06:12:10;;;;;;;8.20;3.80;;;;;;;;;;5041012;28;20211;-62
2023/05/25 06:14:38;;;;;;;7.00;3.83;;;;;;;;;;5049413;28;20212;-62
2023/05/25 06:17:06;;;;;;;5.97;3.67;;;;;;;;;;5044588;28;20309;-63
2023/05/25 06:19:33;;;;;;;5.87;3.50;;;;;;;;;;5047540;28;20227;-62
2023/05/25 06:22:00;;;;;;;8.47;4.23;;;;;;;;;;5040838;28;20246;-62
2023/05/25 06:24:27;;;;;;;6.87;3.63;;;;;;;;;;5048709;28;20234;-62
2023/05/25 06:26:54;;;;;;;7.10;3.50;;;;;;;;;;5049465;28;20207;-62
2023/05/25 06:29:21;;;;;;;6.03;3.23;;;;;;;;;;5048677;28;20207;-62
2023/05/25 06:31:49;;;;;;;7.50;3.23;;;;;;;;;;5046228;28;20211;-62
2023/05/25 06:34:17;;;;;;;7.13;3.30;;;;;;;;;;5044114;28;20203;-62
2023/05/25 06:36:45;;;;;;;7.78;3.40;;;;;;;;;;5048921;28;20202;-63
2023/05/25 06:39:12;;;;;;;7.73;3.30;;;;;;;;;;5045981;28;20219;-62
2023/05/25 06:41:40;;;;;;;7.70;3.73;;;;;;;;;;5049263;28;20203;-62
2023/05/25 06:44:07;;;;;;;6.87;3.33;;;;;;;;;;5051070;28;20212;-62
2023/05/25 06:46:35;;;;;;;8.50;3.78;;;;;;;;;;5049327;28;20203;-62
2023/05/25 06:49:03;;;;;;;7.78;3.40;;;;;;;;;;5051113;28;20196;-62
2023/05/25 06:51:31;;;;;;;9.63;3.65;;;;;;;;;;5051910;28;20213;-62
2023/05/25 06:53:59;;;;;;;7.30;3.08;;;;;;;;;;5054464;28;20268;-62
2023/05/25 06:56:26;;;;;;;6.22;3.50;;;;;;;;;;5051771;28;20211;-62
2023/05/25 06:58:53;;;;;;;8.10;3.55;;;;;;;;;;5054192;28;20269;-62
2023/05/25 07:01:21;;;;;;;6.13;2.95;;;;;;;;;;5051283;28;20195;-62
2023/05/25 07:03:48;;;;;;;6.47;3.22;;;;;;;;;;5051508;28;20218;-62
2023/05/25 07:06:16;;;;;;;11.13;3.08;;;;;;;;;;5052481;28;20206;-63
2023/05/25 07:08:43;;;;;;;6.90;3.38;;;;;;;;;;5052979;28;20233;-63
2023/05/25 07:11:12;;;;;;;5.82;3.30;;;;;;;;;;5051983;28;20210;-63
2023/05/25 07:13:40;;;;;;;6.10;3.47;;;;;;;;;;5048155;28;20261;-62
2023/05/25 07:16:07;;;;;;;6.95;3.47;;;;;;;;;;5053082;28;20207;-62
2023/05/25 07:18:34;;;;;;;7.60;3.30;;;;;;;;;;5048206;28;20227;-62
2023/05/25 07:21:02;;;;;;;6.60;2.97;;;;;;;;;;5051752;28;20234;-61
2023/05/25 07:23:30;;;;;;;9.27;3.47;;;;;;;;;;5051486;28;20204;-68
2023/05/25 07:25:57;;;;;;;7.30;3.03;;;;;;;;;;5052668;28;20199;-70
2023/05/25 07:28:24;;;;;;;5.60;3.10;;;;;;;;;;5053775;28;20204;-69
2023/05/25 07:30:51;;;;;;;7.97;3.30;;;;;;;;;;5054463;28;20203;-69
2023/05/25 07:33:18;;;;;;;6.28;3.53;;;;;;;;;;5053357;28;20200;-69
2023/05/25 07:35:46;;;;;;;7.18;3.05;;;;;;;;;;5054789;28;20204;-69
2023/05/25 07:38:13;;;;;;;6.03;3.03;;;;;;;;;;5050681;28;20234;-69
2023/05/25 07:40:43;;;;;;;5.85;3.00;;;;;;;;;;5051333;28;20212;-69
2023/05/25 07:43:10;;;;;;;7.10;3.38;;;;;;;;;;5054552;28;20234;-68
2023/05/25 07:45:37;;;;;;;5.18;2.67;;;;;;;;;;5054519;28;20207;-69
2023/05/25 07:48:05;;;;;;;5.43;2.90;;;;;;;;;;5047571;28;20208;-68
2023/05/25 07:50:33;;;;;;;4.72;2.88;;;;;;;;;;5051289;28;20196;-69
2023/05/25 07:53:00;;;;;;;7.00;3.22;;;;;;;;;;5048556;28;20200;-68
2023/05/25 07:55:27;;;;;;;5.85;2.70;;;;;;;;;;5048646;28;20206;-68
2023/05/25 07:57:55;;;;;;;6.75;3.00;;;;;;;;;;5051928;28;20215;-69
2023/05/25 08:00:22;;;;;;;4.75;2.60;;;;;;;;;;5048860;28;20199;-70
2023/05/25 08:02:50;;;;;;;7.47;2.92;;;;;;;;;;5050230;28;20195;-70
2023/05/25 08:05:17;;;;;;;6.18;2.78;;;;;;;;;;5052011;28;20215;-68
2023/05/25 08:07:45;;;;;;;5.63;2.90;;;;;;;;;;5052693;28;20239;-69
2023/05/25 08:10:12;;;;;;;8.57;3.28;;;;;;;;;;5053363;28;20314;-67
2023/05/25 08:12:40;;;;;;;4.38;2.45;;;;;;;;;;5053287;28;20215;-68
2023/05/25 08:15:08;;;;;;;4.80;2.85;;;;;;;;;;5053038;28;20195;-69
2023/05/25 08:17:35;;;;;;;7.55;2.92;;;;;;;;;;5053383;28;20207;-70
2023/05/25 08:20:05;;;;;;;7.55;2.83;;;;;;;;;;5051567;28;20208;-68
2023/05/25 08:22:32;;;;;;;7.00;3.10;;;;;;;;;;5051305;28;20247;-68
2023/05/25 08:24:59;;;;;;;6.85;3.13;;;;;;;;;;5051385;28;20212;-69
2023/05/25 08:27:26;;;;;;;6.63;3.05;;;;;;;;;;5053141;28;20208;-69
2023/05/25 08:29:53;;;;;;;4.20;2.60;;;;;;;;;;5052842;28;20207;-70
2023/05/25 08:32:21;;;;;;;4.32;3.08;;;;;;;;;;5052130;28;20203;-70
2023/05/25 08:34:49;;;;;;;7.25;2.97;;;;;;;;;;5052216;28;20207;-69
2023/05/25 08:37:16;;;;;;;7.47;3.13;;;;;;;;;;5049501;28;20226;-69
2023/05/25 08:39:43;;;;;;;6.32;3.08;;;;;;;;;;5051611;28;20223;-69
2023/05/25 08:42:10;;;;;;;5.78;3.10;;;;;;;;;;5049381;28;20208;-70
2023/05/25 08:44:37;;;;;;;7.28;2.70;;;;;;;;;;5044345;28;20222;-69
2023/05/25 08:47:06;;;;;;;8.63;2.90;;;;;;;;;;5049641;28;20218;-70
2023/05/25 08:49:38;;;;;;;5.13;2.60;;;;;;;;;;5052936;28;20238;-69
2023/05/25 08:52:05;;;;;;;4.05;2.35;;;;;;;;;;5046599;28;20196;-71
2023/05/25 08:54:34;;;;;;;5.90;2.72;;;;;;;;;;5053422;28;20207;-70
2023/05/25 08:57:03;;;;;;;4.22;2.70;;;;;;;;;;5048792;28;20203;-70
2023/05/25 08:59:32;;;;;;;5.43;2.55;;;;;;;;;;5049611;28;20215;-70
2023/05/25 09:02:03;;;;;;;4.22;2.50;;;;;;;;;;5048845;28;20195;-70
2023/05/25 09:04:30;;;;;;;5.82;2.55;;;;;;;;;;5049540;28;20196;-70
2023/05/25 09:06:59;;;;;;;5.80;2.90;;;;;;;;;;5050092;28;20208;-68
2023/05/25 09:09:26;;;;;;;5.03;2.80;;;;;;;;;;5049891;28;20207;-68
2023/05/25 09:11:53;;;;;;;5.50;2.75;;;;;;;;;;5051315;28;20229;-71
2023/05/25 09:14:20;;;;;;;2.83;2.38;;;;;;;;;;5048570;28;20211;-71
2023/05/25 09:16:48;;;;;;;4.47;2.50;;;;;;;;;;5051237;28;20215;-70
2023/05/25 09:19:15;;;;;;;5.43;2.55;;;;;;;;;;5051874;28;20219;-70
2023/05/25 09:21:42;;;;;;;7.00;2.78;;;;;;;;;;5051378;28;20235;-70
2023/05/25 09:24:11;;;;;;;4.72;2.75;;;;;;;;;;5049382;28;20219;-70
2023/05/25 09:26:38;;;;;;;4.88;2.67;;;;;;;;;;5049814;28;20257;-70
2023/05/25 09:29:06;;;;;;;4.95;2.75;;;;;;;;;;5050699;28;20204;-69
2023/05/25 09:31:33;;;;;;;5.68;2.50;;;;;;;;;;5050283;28;20211;-70
2023/05/25 09:34:00;;;;;;;5.80;2.50;;;;;;;;;;5050285;28;20211;-70
2023/05/25 09:36:27;;;;;;;5.55;2.75;;;;;;;;;;5045921;28;20206;-70
2023/05/25 09:38:55;;;;;;;5.15;2.70;;;;;;;;;;5051029;28;20216;-68
2023/05/25 09:41:28;;;;;;;6.53;2.90;;;;;;;;;;5048785;28;20207;-68
2023/05/25 09:43:58;;;;;;;4.40;2.80;;;;;;;;;;5050559;28;20207;-68
2023/05/25 09:46:27;;;;;;;4.95;2.33;;;;;;;;;;5046733;28;20200;-68
2023/05/25 09:48:55;;;;;;;5.45;3.10;;;;;;;;;;5044857;28;20267;-69
2023/05/25 09:51:23;;;;;;;5.07;2.83;;;;;;;;;;5051186;28;20207;-68
2023/05/25 09:53:52;;;;;;;4.55;2.47;;;;;;;;;;5044690;28;20229;-69
2023/05/25 09:56:24;;;;;;;3.72;2.50;;;;;;;;;;5048039;28;20203;-69
2023/05/25 09:58:54;;;;;;;5.13;2.80;;;;;;;;;;5048661;28;20223;-68
2023/05/25 10:01:26;;;;;;;5.68;2.58;;;;;;;;;;5050599;28;20217;-69
2023/05/25 10:03:55;;;;;;;5.97;2.80;;;;;;;;;;5037928;28;20208;-70
2023/05/25 10:06:23;;;;;;;5.22;2.78;;;;;;;;;;5040140;28;20203;-70
2023/05/25 10:08:58;;;;;;;4.65;2.78;;;;;;;;;;5049616;28;20204;-69
2023/05/25 10:11:29;;;;;;;4.20;2.50;;;;;;;;;;5049100;28;20207;-69
2023/05/25 10:14:05;;;;;;;7.20;2.83;;;;;;;;;;5049022;28;20282;-70
2023/05/25 10:16:34;;;;;;;5.15;2.60;;;;;;;;;;5047676;28;20202;-70
2023/05/25 10:19:11;;;;;;;7.75;2.92;;;;;;;;;;5046445;28;20223;-69
2023/05/25 10:21:43;;;;;;;5.28;2.50;;;;;;;;;;5043111;28;20227;-70
2023/05/25 10:24:25;;;;;;;5.40;2.47;;;;;;;;;;5045021;28;20223;-69
2023/05/25 10:26:56;;;;;;;5.90;2.55;;;;;;;;;;5048543;28;20214;-70
2023/05/25 10:32:17;;;;;;;3.58;2.47;;;;;;;;;;5047779;28;20242;-70
2023/05/25 10:34:48;;;;;;;5.13;2.67;;;;;;;;;;5051171;28;20207;-70
2023/05/25 10:37:23;;;;;;;4.20;2.72;;;;;;;;;;5051389;28;20203;-70
2023/05/25 10:39:51;;;;;;;8.05;2.85;;;;;;;;;;5049755;28;20231;-70
2023/05/25 10:42:19;;;;;;;3.10;2.00;;;;;;;;;;5052233;28;20262;-70
2023/05/25 10:44:47;;;;;;;3.58;2.30;;;;;;;;;;5053089;28;20210;-68
2023/05/25 10:47:15;;;;;;;5.95;2.42;;;;;;;;;;5052917;28;20209;-71
2023/05/25 10:49:52;;;;;;;3.72;2.38;;;;;;;;;;5053233;28;20199;-70
2023/05/25 10:52:19;;;;;;;4.60;2.35;;;;;;;;;;5051728;28;20207;-69
2023/05/25 10:54:47;;;;;;;4.28;2.60;;;;;;;;;;5051116;28;20204;-69
2023/05/25 10:57:18;;;;;;;3.15;2.30;;;;;;;;;;5051179;28;20203;-69
2023/05/25 10:59:50;;;;;;;3.33;2.17;;;;;;;;;;5044138;28;20218;-69
2023/05/25 11:02:21;;;;;;;3.80;2.40;;;;;;;;;;5052492;28;20487;-69
2023/05/25 11:04:49;;;;;;;3.88;2.47;;;;;;;;;;5048689;28;20215;-69
2023/05/25 11:07:18;;;;;;;4.82;2.80;;;;;;;;;;5051448;28;20207;-69
2023/05/25 11:09:57;;;;;;;4.20;2.72;;;;;;;;;;5051362;28;20199;-69
2023/05/25 11:12:24;;;;;;;4.45;2.80;;;;;;;;;;5050641;28;20209;-69
2023/05/25 11:15:13;;;;;;;5.22;2.47;;;;;;;;;;5050725;28;20230;-69
2023/05/25 11:18:08;;;;;;;6.03;2.95;;;;;;;;;;5052517;28;20293;-69
2023/05/25 11:20:36;;;;;;;5.45;2.50;;;;;;;;;;4987005;28;1183620;-69
2023/05/25 11:23:18;;;;;;;5.70;2.60;;;;;;;;;;5049830;28;20200;-68
2023/05/25 11:25:46;;;;;;;3.70;2.50;;;;;;;;;;5050636;28;20207;-69
2023/05/25 11:28:13;;;;;;;4.10;2.15;;;;;;;;;;5051492;28;20195;-70
2023/05/25 11:30:42;;;;;;;3.45;2.40;;;;;;;;;;5050064;28;20195;-69
2023/05/25 11:33:09;;;;;;;3.58;2.30;;;;;;;;;;5046950;28;20207;-68
2023/05/25 11:35:37;;;;;;;8.40;3.13;;;;;;;;;;5048352;28;20206;-69
2023/05/25 11:38:07;;;;;;;6.13;2.45;;;;;;;;;;5047990;28;20227;-69
2023/05/25 11:40:35;;;;;;;3.10;2.33;;;;;;;;;;5048610;28;20219;-69
2023/05/25 11:43:02;;;;;;;3.80;2.20;;;;;;;;;;5046247;28;20199;-70
2023/05/25 11:45:30;;;;;;;3.58;2.30;;;;;;;;;;5048732;28;20252;-68
2023/05/25 11:47:59;;;;;;;5.35;2.30;;;;;;;;;;5042327;28;20231;-68
2023/05/25 11:50:27;;;;;;;3.50;2.38;;;;;;;;;;5047527;28;20203;-69
2023/05/25 11:52:54;;;;;;;4.82;2.35;;;;;;;;;;5049059;28;20207;-68
2023/05/25 11:55:21;;;;;;;5.28;2.58;;;;;;;;;;5050095;28;20196;-69
2023/05/25 11:57:55;;;;;;;4.28;2.50;;;;;;;;;;5053154;28;20207;-69
2023/05/25 12:00:25;;;;;;;2.90;2.10;;;;;;;;;;5048274;28;20223;-62
2023/05/25 12:02:52;;;;;;;3.10;2.10;;;;;;;;;;5050142;28;20219;-62
2023/05/25 12:05:22;;;;;;;2.53;2.22;;;;;;;;;;5047478;28;20200;-62
2023/05/25 12:07:49;;;;;;;3.60;2.10;;;;;;;;;;5048406;28;20207;-62
2023/05/25 12:10:16;;;;;;;3.17;2.28;;;;;;;;;;5051178;28;20199;-62
2023/05/25 12:12:44;;;;;;;3.17;2.28;;;;;;;;;;5049241;28;20199;-62
2023/05/25 12:15:12;;;;;;;3.38;2.20;;;;;;;;;;5045366;28;20210;-62
2023/05/25 12:17:41;;;;;;;3.75;2.13;;;;;;;;;;5042267;28;20207;-62
2023/05/25 12:20:09;;;;;;;3.63;2.45;;;;;;;;;;5043945;28;20224;-62
2023/05/25 12:22:38;;;;;;;3.45;2.20;;;;;;;;;;5046453;28;20326;-63
2023/05/25 12:25:06;;;;;;;5.93;2.33;;;;;;;;;;5049237;28;20210;-63
2023/05/25 12:27:33;;;;;;;4.28;2.38;;;;;;;;;;5044562;28;20207;-62
2023/05/25 12:30:00;;;;;;;5.93;2.33;;;;;;;;;;5046374;28;20199;-62
2023/05/25 12:32:27;;;;;;;4.80;2.35;;;;;;;;;;5046595;28;20203;-62
2023/05/25 12:35:02;;;;;;;4.93;2.33;;;;;;;;;;5043132;28;20211;-63
2023/05/25 12:37:29;;;;;;;4.68;2.60;;;;;;;;;;5036888;28;20203;-62
2023/05/25 12:39:58;;;;;;;5.53;2.85;;;;;;;;;;5043698;28;20270;-62
2023/05/25 12:42:26;;;;;;;2.88;2.42;;;;;;;;;;5046272;28;20215;-63
2023/05/25 12:44:56;;;;;;;3.63;2.47;;;;;;;;;;5041102;28;20196;-62
2023/05/25 12:47:26;;;;;;;4.07;2.50;;;;;;;;;;5046259;28;20215;-62
2023/05/25 12:49:54;;;;;;;6.30;3.03;;;;;;;;;;5044729;28;20238;-61
2023/05/25 12:52:34;;;;;;;7.63;2.80;;;;;;;;;;5046982;28;20297;-62
2023/05/25 12:55:16;;;;;;;5.38;3.03;;;;;;;;;;5043996;28;20203;-61
2023/05/25 12:57:45;;;;;;;5.57;2.53;;;;;;;;;;5045147;28;20235;-62
2023/05/25 13:00:13;;;;;;;4.53;2.90;;;;;;;;;;5042149;28;20289;-62
2023/05/25 13:02:43;;;;;;;3.92;2.38;;;;;;;;;;5045586;28;20208;-63
2023/05/25 13:05:17;;;;;;;4.30;2.50;;;;;;;;;;5045928;28;20279;-62
2023/05/25 13:07:44;;;;;;;5.68;2.63;;;;;;;;;;5043140;28;20212;-62
2023/05/25 13:10:12;;;;;;;5.30;2.60;;;;;;;;;;5049012;28;20207;-62
2023/05/25 13:12:40;;;;;;;3.65;2.60;;;;;;;;;;5046140;28;20200;-62
2023/05/25 13:15:09;;;;;;;2.97;2.25;;;;;;;;;;5048426;28;20203;-62
2023/05/25 13:17:36;;;;;;;2.85;2.35;;;;;;;;;;5046691;28;20230;-61
2023/05/25 13:20:04;;;;;;;4.97;2.60;;;;;;;;;;5045064;28;20234;-61
2023/05/25 13:22:31;;;;;;;6.22;2.60;;;;;;;;;;5043676;28;20277;-63
2023/05/25 13:24:58;;;;;;;5.15;2.33;;;;;;;;;;5044470;28;20207;-63
2023/05/25 13:27:25;;;;;;;3.63;2.50;;;;;;;;;;5048411;28;20199;-61
2023/05/25 13:29:53;;;;;;;3.10;2.38;;;;;;;;;;5049362;28;20207;-64
2023/05/25 13:32:21;;;;;;;5.05;3.33;;;;;;;;;;5049867;28;20203;-62
2023/05/25 13:34:52;;;;;;;5.18;2.75;;;;;;;;;;5049869;28;20199;-62
2023/05/25 13:37:19;;;;;;;4.15;2.58;;;;;;;;;;5051435;28;20207;-63
2023/05/25 13:39:47;;;;;;;4.03;2.85;;;;;;;;;;5045734;28;20206;-63
2023/05/25 13:42:14;;;;;;;5.57;2.50;;;;;;;;;;5045195;28;20195;-63
2023/05/25 13:44:41;;;;;;;5.65;2.53;;;;;;;;;;5048680;28;20199;-61
2023/05/25 13:47:08;;;;;;;3.58;2.33;;;;;;;;;;5046511;28;20210;-61
2023/05/25 13:49:37;;;;;;;4.72;2.45;;;;;;;;;;5048302;28;20211;-62
2023/05/25 13:52:04;;;;;;;4.68;2.40;;;;;;;;;;5047480;28;20207;-62
2023/05/25 13:54:31;;;;;;;3.60;2.13;;;;;;;;;;5044355;28;20199;-62
2023/05/25 13:56:58;;;;;;;4.20;2.40;;;;;;;;;;5046430;28;20191;-62
2023/05/25 13:59:25;;;;;;;5.22;2.78;;;;;;;;;;5048193;28;20207;-62
2023/05/25 14:01:52;;;;;;;3.20;2.50;;;;;;;;;;5047339;28;20207;-62
2023/05/25 14:04:19;;;;;;;5.05;2.60;;;;;;;;;;5043494;28;20195;-62
2023/05/25 14:06:48;;;;;;;4.28;2.40;;;;;;;;;;5049317;28;20202;-62
2023/05/25 14:09:16;;;;;;;2.50;2.20;;;;;;;;;;5048138;28;20203;-63
2023/05/25 14:11:43;;;;;;;5.50;2.60;;;;;;;;;;5042967;28;20323;-62
2023/05/25 14:14:11;;;;;;;4.38;2.47;;;;;;;;;;5041587;28;20196;-62
2023/05/25 14:16:38;;;;;;;5.32;2.30;;;;;;;;;;5043218;28;20199;-62
2023/05/25 14:19:06;;;;;;;3.05;2.25;;;;;;;;;;5048429;28;20222;-61
2023/05/25 14:21:33;;;;;;;3.15;2.38;;;;;;;;;;5047354;28;20278;-62
2023/05/25 14:24:02;;;;;;;5.10;2.70;;;;;;;;;;5050084;28;20200;-62
2023/05/25 14:26:29;;;;;;;4.75;2.53;;;;;;;;;;5047189;28;20206;-62
2023/05/25 14:28:56;;;;;;;4.50;2.30;;;;;;;;;;5046511;28;20205;-62
2023/05/25 14:31:23;;;;;;;2.75;2.25;;;;;;;;;;5044591;28;20211;-62
2023/05/25 14:33:50;;;;;;;5.82;2.60;;;;;;;;;;5047874;28;20214;-63
2023/05/25 14:36:17;;;;;;;2.80;2.17;;;;;;;;;;5048236;28;20211;-62
2023/05/25 14:38:44;;;;;;;4.03;2.10;;;;;;;;;;5048494;28;20203;-62
2023/05/25 14:41:13;;;;;;;2.80;2.40;;;;;;;;;;5048968;28;20234;-62
2023/05/25 14:43:40;;;;;;;2.42;2.10;;;;;;;;;;5048287;28;20223;-62
2023/05/25 14:46:09;;;;;;;6.40;2.15;;;;;;;;;;5045475;28;20196;-62
2023/05/25 14:48:36;;;;;;;4.80;2.38;;;;;;;;;;5048049;28;20215;-63
2023/05/25 14:51:03;;;;;;;2.65;1.98;;;;;;;;;;5046332;28;20200;-62